createdAt,value
2023-03-06T00:02:07.859Z,95478.53
2023-03-06T00:06:30.382Z,95485.13
2023-03-06T00:10:43.072Z,95494.34
2023-03-06T00:14:55.526Z,95493.59
2023-03-06T00:19:08.102Z,95467.31
2023-03-06T00:23:20.628Z,95465.00
2023-03-06T00:27:39.591Z,95471.91
2023-03-06T00:31:55.699Z,95462.00
2023-03-06T00:36:08.655Z,95459.13
2023-03-06T00:40:22.842Z,95450.28
2023-03-06T00:44:35.339Z,95441.94
2023-03-06T00:48:47.964Z,95435.69
2023-03-06T00:53:00.463Z,95438.69
2023-03-06T00:57:13.342Z,95433.63
2023-03-06T01:01:25.790Z,95420.88
2023-03-06T01:05:46.192Z,95420.72
2023-03-06T01:10:09.846Z,95412.22
2023-03-06T01:14:22.774Z,95406.50
2023-03-06T01:18:44.019Z,95400.63
2023-03-06T01:22:57.407Z,95385.16
2023-03-06T01:27:09.902Z,95386.28
2023-03-06T01:31:22.396Z,95379.06
2023-03-06T01:35:34.829Z,95362.81
2023-03-06T01:39:47.583Z,95354.97
2023-03-06T01:44:00.120Z,95349.47
2023-03-06T01:48:12.606Z,95342.50
2023-03-06T01:52:31.081Z,95332.47
2023-03-06T01:56:55.328Z,95335.19
2023-03-06T02:01:15.432Z,95332.03
2023-03-06T02:05:29.379Z,95304.84
2023-03-06T02:09:41.857Z,95322.59
2023-03-06T02:13:55.742Z,95309.50
2023-03-06T02:18:08.305Z,95310.97
2023-03-06T02:22:21.904Z,95306.28
2023-03-06T02:26:35.656Z,95305.09
2023-03-06T02:30:52.118Z,95301.19
2023-03-06T02:35:05.400Z,95286.94
2023-03-06T02:39:31.002Z,95283.63
2023-03-06T02:43:46.768Z,95280.88
2023-03-06T02:48:00.277Z,95277.75
2023-03-06T02:52:12.874Z,95269.06
2023-03-06T02:56:25.443Z,95263.63
2023-03-06T03:00:40.189Z,95260.41
2023-03-06T03:04:52.803Z,95248.56
2023-03-06T03:09:05.399Z,95242.56
2023-03-06T03:13:18.587Z,95252.81
2023-03-06T03:17:31.425Z,95233.19
2023-03-06T03:21:43.999Z,95241.16
2023-03-06T03:25:56.442Z,95229.72
2023-03-06T03:30:10.337Z,95236.78
2023-03-06T03:34:23.408Z,95230.13
2023-03-06T03:38:36.575Z,95230.22
2023-03-06T03:42:49.045Z,95210.38
2023-03-06T03:47:01.587Z,95215.31
2023-03-06T03:51:17.316Z,95228.81
2023-03-06T03:55:30.606Z,95223.31
2023-03-06T03:59:43.037Z,95220.94
2023-03-06T04:03:55.483Z,95221.63
2023-03-06T04:08:08.154Z,95204.84
2023-03-06T04:12:20.578Z,95203.81
2023-03-06T04:16:33.099Z,95193.00
2023-03-06T04:20:46.973Z,95208.72
2023-03-06T04:24:59.452Z,95188.53
2023-03-06T04:29:11.915Z,95184.09
2023-03-06T04:33:34.519Z,95188.88
2023-03-06T04:37:47.082Z,95182.78
2023-03-06T04:41:59.535Z,95181.84
2023-03-06T04:46:12.197Z,95176.63
2023-03-06T04:50:26.239Z,95181.66
2023-03-06T04:54:38.700Z,95183.72
2023-03-06T04:58:51.454Z,95176.63
2023-03-06T05:03:03.981Z,95175.03
2023-03-06T05:07:16.418Z,95170.38
2023-03-06T05:11:28.998Z,95172.06
2023-03-06T05:15:41.693Z,95180.56
2023-03-06T05:19:54.260Z,95171.97
2023-03-06T05:24:07.030Z,95167.31
2023-03-06T05:28:19.719Z,95166.13
2023-03-06T05:32:34.461Z,95158.22
2023-03-06T05:36:48.357Z,95158.06
2023-03-06T05:41:00.805Z,95152.56
2023-03-06T05:45:13.471Z,95158.72
2023-03-06T05:49:26.162Z,95158.81
2023-03-06T05:53:38.712Z,95152.38
2023-03-06T05:58:01.163Z,95159.50
2023-03-06T06:02:13.695Z,95162.88
2023-03-06T06:06:26.500Z,95171.53
2023-03-06T06:10:40.413Z,95161.53
2023-03-06T06:15:02.823Z,95156.50
2023-03-06T06:19:19.499Z,95163.19
2023-03-06T06:23:31.906Z,95160.94
2023-03-06T06:27:44.566Z,95162.53
2023-03-06T06:31:57.552Z,95165.84
2023-03-06T06:36:20.685Z,95179.56
2023-03-06T06:40:33.123Z,95177.41
2023-03-06T06:44:45.773Z,95169.94
2023-03-06T06:48:59.415Z,95181.63
2023-03-06T06:53:11.892Z,95176.81
2023-03-06T06:57:24.401Z,95163.91
2023-03-06T07:01:36.958Z,95177.53
2023-03-06T07:05:56.788Z,95179.06
2023-03-06T07:10:15.915Z,95177.09
2023-03-06T07:14:28.400Z,95167.53
2023-03-06T07:18:41.108Z,95165.00
2023-03-06T07:22:53.512Z,95178.97
2023-03-06T07:27:06.037Z,95180.44
2023-03-06T07:31:18.589Z,95170.94
2023-03-06T07:35:43.245Z,95180.22
2023-03-06T07:39:55.722Z,95181.19
2023-03-06T07:44:08.230Z,95183.91
2023-03-06T07:48:20.666Z,95179.59
2023-03-06T07:52:33.140Z,95173.47
2023-03-06T07:56:45.582Z,95185.84
2023-03-06T08:00:58.042Z,95186.88
2023-03-06T08:05:15.398Z,95192.69
2023-03-06T08:09:28.390Z,95191.31
2023-03-06T08:13:41.229Z,95193.38
2023-03-06T08:17:54.505Z,95192.72
2023-03-06T08:22:07.813Z,95204.31
2023-03-06T08:26:26.076Z,95197.25
2023-03-06T08:30:38.638Z,95204.19
2023-03-06T08:34:51.164Z,95201.31
2023-03-06T08:39:04.892Z,95200.72
2023-03-06T08:43:17.387Z,95184.13
2023-03-06T08:47:29.866Z,95216.88
2023-03-06T08:51:43.234Z,95205.31
2023-03-06T08:55:55.656Z,95222.53
2023-03-06T09:00:11.704Z,95214.66
2023-03-06T09:04:24.188Z,95199.59
2023-03-06T09:08:36.895Z,95216.31
2023-03-06T09:12:52.509Z,95210.13
2023-03-06T09:17:06.308Z,95217.00
2023-03-06T09:21:18.819Z,95208.94
2023-03-06T09:25:31.335Z,95215.63
2023-03-06T09:29:43.797Z,95208.75
2023-03-06T09:33:56.269Z,95217.25
2023-03-06T09:38:08.786Z,95215.19
2023-03-06T09:42:24.486Z,95220.75
2023-03-06T09:46:58.318Z,95217.63
2023-03-06T09:51:17.987Z,95213.97
2023-03-06T09:55:39.371Z,95216.41
2023-03-06T09:59:57.725Z,95213.34
2023-03-06T10:04:28.391Z,95207.75
2023-03-06T10:08:56.118Z,95216.00
2023-03-06T10:13:33.816Z,95215.22
2023-03-06T10:17:52.670Z,95198.00
2023-03-06T10:22:20.594Z,95205.59
2023-03-06T10:26:48.076Z,95201.34
2023-03-06T10:31:25.099Z,95196.34
2023-03-06T10:35:50.333Z,95197.53
2023-03-06T10:40:17.179Z,95201.34
2023-03-06T10:44:29.689Z,95174.84
2023-03-06T10:48:43.293Z,95195.31
2023-03-06T10:53:06.584Z,95184.22
2023-03-06T10:57:29.798Z,95194.00
2023-03-06T11:01:55.534Z,95185.28
2023-03-06T11:06:35.328Z,95192.31
2023-03-06T11:11:01.971Z,95190.41
2023-03-06T11:15:22.713Z,95187.44
2023-03-06T11:19:35.238Z,95178.03
2023-03-06T11:23:48.264Z,95184.13
2023-03-06T11:28:13.502Z,95192.16
2023-03-06T11:32:34.332Z,95178.81
2023-03-06T11:37:11.107Z,95171.03
2023-03-06T11:41:26.607Z,95172.34
2023-03-06T11:46:07.077Z,95177.59
2023-03-06T11:50:42.244Z,95166.22
2023-03-06T11:54:58.471Z,95170.38
2023-03-06T11:59:36.462Z,95175.81
2023-03-06T12:04:06.942Z,95176.97
2023-03-06T12:08:57.323Z,95163.81
2023-03-06T12:13:28.503Z,95166.16
2023-03-06T12:17:53.985Z,95173.75
2023-03-06T12:23:02.549Z,95165.38
2023-03-06T12:27:30.620Z,95151.47
2023-03-06T12:32:17.668Z,95150.22
2023-03-06T12:37:02.310Z,95128.84
2023-03-06T12:41:39.382Z,95152.31
2023-03-06T12:45:58.998Z,95148.97
2023-03-06T12:50:32.860Z,95143.19
2023-03-06T12:54:45.363Z,95146.56
2023-03-06T12:59:03.014Z,95142.91
2023-03-06T13:04:02.808Z,95141.66
2023-03-06T13:08:47.318Z,95142.59
2023-03-06T13:13:02.821Z,95130.88
2023-03-06T13:17:21.231Z,95137.44
2023-03-06T13:21:42.754Z,95135.56
2023-03-06T13:26:00.458Z,95136.53
2023-03-06T13:30:24.350Z,95129.53
2023-03-06T13:34:42.425Z,95116.25
2023-03-06T13:39:01.642Z,95131.41
2023-03-06T13:43:22.208Z,95130.09
2023-03-06T13:48:21.164Z,95126.47
2023-03-06T13:52:44.952Z,95126.19
2023-03-06T13:57:39.207Z,95121.31
2023-03-06T14:02:06.073Z,95124.91
2023-03-06T14:06:36.431Z,95113.53
2023-03-06T14:11:01.275Z,95125.53
2023-03-06T14:15:24.803Z,95117.47
2023-03-06T14:19:39.397Z,95112.47
2023-03-06T14:24:04.840Z,95113.84
2023-03-06T14:28:33.045Z,95103.59
2023-03-06T14:32:46.013Z,95107.13
2023-03-06T14:37:08.643Z,95105.91
2023-03-06T14:41:27.961Z,95102.13
2023-03-06T14:45:58.013Z,95101.25
2023-03-06T14:50:31.689Z,95103.03
2023-03-06T14:54:45.708Z,95101.66
2023-03-06T14:59:04.509Z,95105.16
2023-03-06T15:03:37.117Z,95099.25
2023-03-06T15:07:51.454Z,95086.31
2023-03-06T15:12:09.268Z,95102.09
2023-03-06T15:16:21.602Z,95089.50
2023-03-06T15:21:08.500Z,95084.00
2023-03-06T15:25:30.774Z,95104.69
2023-03-06T15:29:43.235Z,95101.19
2023-03-06T15:34:15.399Z,95093.75
2023-03-06T15:38:44.352Z,95099.22
2023-03-06T15:43:00.640Z,95092.91
2023-03-06T15:47:13.243Z,95097.19
2023-03-06T15:51:26.235Z,95100.03
2023-03-06T15:55:39.378Z,95081.00
2023-03-06T15:59:52.554Z,95101.41
2023-03-06T16:04:05.048Z,95093.44
2023-03-06T16:08:17.751Z,95107.22
2023-03-06T16:12:31.598Z,95111.75
2023-03-06T16:16:44.235Z,95100.34
2023-03-06T16:20:57.453Z,95107.34
2023-03-06T16:25:10.478Z,95104.72
2023-03-06T16:29:28.195Z,95108.78
2023-03-06T16:33:40.947Z,95114.09
2023-03-06T16:37:55.677Z,95116.81
2023-03-06T16:42:08.160Z,95120.41
2023-03-06T16:46:26.153Z,95126.63
2023-03-06T16:50:41.127Z,95126.31
2023-03-06T16:54:53.719Z,95118.66
2023-03-06T16:59:06.316Z,95114.03
2023-03-06T17:03:18.874Z,95118.44
2023-03-06T17:07:34.689Z,95107.69
2023-03-06T17:11:47.635Z,95129.59
2023-03-06T17:16:02.456Z,95123.31
2023-03-06T17:20:15.945Z,95134.91
2023-03-06T17:24:28.874Z,95135.56
2023-03-06T17:28:41.578Z,95137.06
2023-03-06T17:32:54.644Z,95148.22
2023-03-06T17:37:07.699Z,95147.22
2023-03-06T17:41:20.374Z,95145.94
2023-03-06T17:45:35.037Z,95154.66
2023-03-06T17:49:47.805Z,95156.53
2023-03-06T17:54:00.302Z,95154.03
2023-03-06T17:58:12.938Z,95155.66
2023-03-06T18:02:25.452Z,95165.59
2023-03-06T18:06:44.088Z,95168.22
2023-03-06T18:11:01.567Z,95175.97
2023-03-06T18:15:14.063Z,95163.97
2023-03-06T18:19:26.554Z,95166.81
2023-03-06T18:23:40.952Z,95160.72
2023-03-06T18:27:53.576Z,95164.16
2023-03-06T18:32:06.383Z,95171.41
2023-03-06T18:36:20.054Z,95176.31
2023-03-06T18:40:32.545Z,95175.34
2023-03-06T18:44:48.567Z,95184.06
2023-03-06T18:49:01.734Z,95179.28
2023-03-06T18:53:14.180Z,95173.41
2023-03-06T18:57:30.217Z,95166.66
2023-03-06T19:01:48.158Z,95170.81
2023-03-06T19:06:06.790Z,95180.28
2023-03-06T19:10:19.383Z,95176.47
2023-03-06T19:14:31.945Z,95178.41
2023-03-06T19:18:44.402Z,95171.66
2023-03-06T19:22:56.909Z,95153.00
2023-03-06T19:27:09.463Z,95192.69
2023-03-06T19:31:26.666Z,95184.19
2023-03-06T19:35:39.241Z,95179.50
2023-03-06T19:39:51.775Z,95182.69
2023-03-06T19:44:06.506Z,95185.28
2023-03-06T19:48:20.164Z,95170.25
2023-03-06T19:52:37.787Z,95187.00
2023-03-06T19:56:50.299Z,95173.72
2023-03-06T20:01:13.024Z,95177.84
2023-03-06T20:05:25.513Z,95165.53
2023-03-06T20:09:38.060Z,95184.50
2023-03-06T20:13:51.047Z,95175.00
2023-03-06T20:18:08.196Z,95180.31
2023-03-06T20:22:20.758Z,95190.81
2023-03-06T20:26:34.954Z,95191.69
2023-03-06T20:30:47.425Z,95184.91
2023-03-06T20:35:00.161Z,95199.19
2023-03-06T20:39:16.610Z,95180.91
2023-03-06T20:43:29.140Z,95183.06
2023-03-06T20:47:47.592Z,95187.97
2023-03-06T20:52:00.137Z,95176.63
2023-03-06T20:56:15.091Z,95187.03
2023-03-06T21:00:27.585Z,95191.06
2023-03-06T21:04:41.721Z,95176.56
2023-03-06T21:08:54.201Z,95171.00
2023-03-06T21:13:06.699Z,95174.84
2023-03-06T21:17:19.619Z,95162.41
2023-03-06T21:21:35.481Z,95186.38
2023-03-06T21:25:50.835Z,95178.75
2023-03-06T21:30:14.209Z,95062.56
2023-03-06T21:34:26.715Z,95160.00
2023-03-06T21:38:39.480Z,95173.94
2023-03-06T21:42:52.269Z,95166.31
2023-03-06T21:47:04.866Z,95176.25
2023-03-06T21:51:20.506Z,95179.41
2023-03-06T21:55:33.078Z,95179.94
2023-03-06T21:59:45.528Z,95145.94
2023-03-06T22:03:59.234Z,95157.06
2023-03-06T22:08:11.745Z,95144.88
2023-03-06T22:12:24.230Z,95157.28
2023-03-06T22:16:36.739Z,95148.91
2023-03-06T22:20:49.323Z,95140.16
2023-03-06T22:25:02.107Z,95147.78
2023-03-06T22:29:14.566Z,95136.56
2023-03-06T22:33:27.014Z,95149.63
2023-03-06T22:37:39.498Z,95137.19
2023-03-06T22:41:52.168Z,95139.81
2023-03-06T22:46:11.085Z,95136.34
2023-03-06T22:50:23.584Z,95099.41
2023-03-06T22:54:36.596Z,95120.34
2023-03-06T22:58:49.518Z,95112.16
2023-03-06T23:03:02.167Z,95124.38
2023-03-06T23:07:14.597Z,95109.00
2023-03-06T23:11:30.068Z,95118.47
2023-03-06T23:15:51.433Z,95097.75
2023-03-06T23:20:10.765Z,95103.97
2023-03-06T23:24:23.210Z,95108.00
2023-03-06T23:28:35.933Z,95087.31
2023-03-06T23:32:49.267Z,95052.13
2023-03-06T23:37:01.878Z,95119.13
2023-03-06T23:41:18.836Z,95112.25
2023-03-06T23:45:31.692Z,95113.34
2023-03-06T23:49:44.395Z,95102.03
2023-03-06T23:53:59.788Z,95109.88
2023-03-06T23:58:12.902Z,95120.22
